sensor_id;sensor_type;location;lat;lon;timestamp;P1;durP1;ratioP1;P2;durP2;ratioP2
19004;SDS011;9635;52.078;8.648;2024-01-11T00:02:39;81.22;;;29.05;;
19004;SDS011;9635;52.078;8.648;2024-01-11T00:07:44;79.68;;;29.45;;
19004;SDS011;9635;52.078;8.648;2024-01-11T00:12:47;71.95;;;29.75;;
19004;SDS011;9635;52.078;8.648;2024-01-11T00:17:50;77.80;;;30.92;;
19004;SDS011;9635;52.078;8.648;2024-01-11T00:22:54;81.50;;;31.50;;
19004;SDS011;9635;52.078;8.648;2024-01-11T00:27:57;77.70;;;30.67;;
19004;SDS011;9635;52.078;8.648;2024-01-11T00:33:00;77.65;;;30.90;;
19004;SDS011;9635;52.078;8.648;2024-01-11T00:38:05;80.40;;;30.92;;
19004;SDS011;9635;52.078;8.648;2024-01-11T00:43:08;80.82;;;31.80;;
19004;SDS011;9635;52.078;8.648;2024-01-11T00:48:12;72.00;;;31.40;;
19004;SDS011;9635;52.078;8.648;2024-01-11T00:53:16;78.28;;;30.65;;
19004;SDS011;9635;52.078;8.648;2024-01-11T00:58:19;73.40;;;29.48;;
19004;SDS011;9635;52.078;8.648;2024-01-11T01:03:22;76.25;;;31.70;;
19004;SDS011;9635;52.078;8.648;2024-01-11T01:08:27;79.40;;;31.38;;
19004;SDS011;9635;52.078;8.648;2024-01-11T01:13:30;79.43;;;30.60;;
19004;SDS011;9635;52.078;8.648;2024-01-11T01:18:33;80.50;;;32.38;;
19004;SDS011;9635;52.078;8.648;2024-01-11T01:23:38;78.35;;;30.33;;
19004;SDS011;9635;52.078;8.648;2024-01-11T01:28:41;75.28;;;30.98;;
19004;SDS011;9635;52.078;8.648;2024-01-11T01:33:44;83.93;;;32.67;;
19004;SDS011;9635;52.078;8.648;2024-01-11T01:38:48;73.32;;;30.30;;
19004;SDS011;9635;52.078;8.648;2024-01-11T01:43:52;75.00;;;30.23;;
19004;SDS011;9635;52.078;8.648;2024-01-11T01:48:56;69.40;;;27.77;;
19004;SDS011;9635;52.078;8.648;2024-01-11T01:54:02;70.47;;;28.13;;
19004;SDS011;9635;52.078;8.648;2024-01-11T01:59:07;77.07;;;29.50;;
19004;SDS011;9635;52.078;8.648;2024-01-11T02:04:12;86.35;;;32.17;;
19004;SDS011;9635;52.078;8.648;2024-01-11T02:09:17;82.28;;;32.05;;
19004;SDS011;9635;52.078;8.648;2024-01-11T02:14:20;79.60;;;30.33;;
19004;SDS011;9635;52.078;8.648;2024-01-11T02:19:24;83.57;;;29.10;;
19004;SDS011;9635;52.078;8.648;2024-01-11T02:24:28;71.60;;;28.85;;
19004;SDS011;9635;52.078;8.648;2024-01-11T02:29:31;85.18;;;32.85;;
19004;SDS011;9635;52.078;8.648;2024-01-11T02:34:35;84.75;;;33.10;;
19004;SDS011;9635;52.078;8.648;2024-01-11T02:39:39;85.97;;;31.92;;
19004;SDS011;9635;52.078;8.648;2024-01-11T02:44:43;79.68;;;30.85;;
19004;SDS011;9635;52.078;8.648;2024-01-11T02:49:46;82.68;;;32.10;;
19004;SDS011;9635;52.078;8.648;2024-01-11T02:54:51;81.40;;;31.30;;
19004;SDS011;9635;52.078;8.648;2024-01-11T02:59:54;85.18;;;31.25;;
19004;SDS011;9635;52.078;8.648;2024-01-11T03:04:57;75.78;;;29.40;;
19004;SDS011;9635;52.078;8.648;2024-01-11T03:10:01;77.75;;;29.40;;
19004;SDS011;9635;52.078;8.648;2024-01-11T03:15:04;83.07;;;30.00;;
19004;SDS011;9635;52.078;8.648;2024-01-11T03:20:08;68.78;;;29.40;;
19004;SDS011;9635;52.078;8.648;2024-01-11T03:25:13;80.47;;;28.58;;
19004;SDS011;9635;52.078;8.648;2024-01-11T03:30:17;73.05;;;28.42;;
19004;SDS011;9635;52.078;8.648;2024-01-11T03:35:20;80.97;;;28.95;;
19004;SDS011;9635;52.078;8.648;2024-01-11T03:40:24;76.60;;;28.52;;
19004;SDS011;9635;52.078;8.648;2024-01-11T03:45:28;65.43;;;28.00;;
19004;SDS011;9635;52.078;8.648;2024-01-11T03:50:31;75.80;;;28.85;;
19004;SDS011;9635;52.078;8.648;2024-01-11T03:55:35;74.93;;;30.85;;
19004;SDS011;9635;52.078;8.648;2024-01-11T04:00:38;76.43;;;30.27;;
19004;SDS011;9635;52.078;8.648;2024-01-11T04:05:41;73.53;;;28.65;;
19004;SDS011;9635;52.078;8.648;2024-01-11T04:10:46;70.28;;;29.85;;
19004;SDS011;9635;52.078;8.648;2024-01-11T04:15:49;73.97;;;29.80;;
19004;SDS011;9635;52.078;8.648;2024-01-11T04:20:52;80.03;;;30.75;;
19004;SDS011;9635;52.078;8.648;2024-01-11T04:25:56;74.10;;;27.85;;
19004;SDS011;9635;52.078;8.648;2024-01-11T04:31:00;62.65;;;26.58;;
19004;SDS011;9635;52.078;8.648;2024-01-11T04:36:03;69.68;;;26.23;;
19004;SDS011;9635;52.078;8.648;2024-01-11T04:41:11;65.53;;;28.23;;
19004;SDS011;9635;52.078;8.648;2024-01-11T04:46:15;82.60;;;30.80;;
19004;SDS011;9635;52.078;8.648;2024-01-11T04:51:19;67.38;;;28.00;;
19004;SDS011;9635;52.078;8.648;2024-01-11T04:56:24;75.60;;;29.80;;
19004;SDS011;9635;52.078;8.648;2024-01-11T05:01:27;65.82;;;27.40;;
19004;SDS011;9635;52.078;8.648;2024-01-11T05:06:30;65.85;;;27.80;;
19004;SDS011;9635;52.078;8.648;2024-01-11T05:11:34;81.28;;;33.45;;
19004;SDS011;9635;52.078;8.648;2024-01-11T05:16:37;77.18;;;31.50;;
19004;SDS011;9635;52.078;8.648;2024-01-11T05:21:41;81.10;;;33.10;;
19004;SDS011;9635;52.078;8.648;2024-01-11T05:26:45;85.60;;;33.08;;
19004;SDS011;9635;52.078;8.648;2024-01-11T05:31:48;76.85;;;31.05;;
19004;SDS011;9635;52.078;8.648;2024-01-11T05:36:51;84.68;;;30.65;;
19004;SDS011;9635;52.078;8.648;2024-01-11T05:41:56;84.95;;;31.85;;
19004;SDS011;9635;52.078;8.648;2024-01-11T05:46:59;71.70;;;29.48;;
19004;SDS011;9635;52.078;8.648;2024-01-11T05:52:02;72.35;;;30.02;;
19004;SDS011;9635;52.078;8.648;2024-01-11T05:57:07;78.38;;;31.67;;
19004;SDS011;9635;52.078;8.648;2024-01-11T06:02:10;85.30;;;32.28;;
19004;SDS011;9635;52.078;8.648;2024-01-11T06:07:13;83.32;;;31.17;;
19004;SDS011;9635;52.078;8.648;2024-01-11T06:12:17;80.57;;;30.95;;
19004;SDS011;9635;52.078;8.648;2024-01-11T06:17:20;84.75;;;32.88;;
19004;SDS011;9635;52.078;8.648;2024-01-11T06:22:23;80.80;;;31.13;;
19004;SDS011;9635;52.078;8.648;2024-01-11T06:27:28;76.32;;;30.13;;
19004;SDS011;9635;52.078;8.648;2024-01-11T06:32:30;73.00;;;26.77;;
19004;SDS011;9635;52.078;8.648;2024-01-11T06:37:34;78.05;;;30.80;;
19004;SDS011;9635;52.078;8.648;2024-01-11T06:42:38;70.25;;;26.90;;
19004;SDS011;9635;52.078;8.648;2024-01-11T06:47:41;68.60;;;26.42;;
19004;SDS011;9635;52.078;8.648;2024-01-11T06:52:47;70.28;;;27.40;;
19004;SDS011;9635;52.078;8.648;2024-01-11T06:57:51;75.13;;;30.10;;
19004;SDS011;9635;52.078;8.648;2024-01-11T07:02:54;75.80;;;31.52;;
19004;SDS011;9635;52.078;8.648;2024-01-11T07:07:57;79.90;;;30.88;;
19004;SDS011;9635;52.078;8.648;2024-01-11T07:13:02;84.47;;;29.95;;
19004;SDS011;9635;52.078;8.648;2024-01-11T07:18:05;87.30;;;31.00;;
19004;SDS011;9635;52.078;8.648;2024-01-11T07:23:08;80.90;;;31.70;;
19004;SDS011;9635;52.078;8.648;2024-01-11T07:28:12;77.90;;;30.90;;
19004;SDS011;9635;52.078;8.648;2024-01-11T07:33:15;72.18;;;30.42;;
19004;SDS011;9635;52.078;8.648;2024-01-11T07:38:19;75.22;;;31.67;;
19004;SDS011;9635;52.078;8.648;2024-01-11T07:43:23;74.03;;;29.00;;
19004;SDS011;9635;52.078;8.648;2024-01-11T07:48:35;79.07;;;30.60;;
19004;SDS011;9635;52.078;8.648;2024-01-11T07:53:38;80.40;;;29.50;;
19004;SDS011;9635;52.078;8.648;2024-01-11T07:58:44;72.93;;;27.77;;
19004;SDS011;9635;52.078;8.648;2024-01-11T08:03:50;69.38;;;27.13;;
19004;SDS011;9635;52.078;8.648;2024-01-11T08:08:54;71.45;;;29.13;;
19004;SDS011;9635;52.078;8.648;2024-01-11T08:13:59;114.43;;;41.28;;
19004;SDS011;9635;52.078;8.648;2024-01-11T08:19:02;139.57;;;61.78;;
19004;SDS011;9635;52.078;8.648;2024-01-11T08:24:05;61.55;;;32.80;;
19004;SDS011;9635;52.078;8.648;2024-01-11T08:29:10;58.10;;;28.67;;
19004;SDS011;9635;52.078;8.648;2024-01-11T08:34:14;54.95;;;28.42;;
19004;SDS011;9635;52.078;8.648;2024-01-11T08:39:17;61.22;;;28.23;;
19004;SDS011;9635;52.078;8.648;2024-01-11T08:44:21;57.67;;;27.00;;
19004;SDS011;9635;52.078;8.648;2024-01-11T08:49:25;53.10;;;25.05;;
19004;SDS011;9635;52.078;8.648;2024-01-11T08:54:28;61.05;;;25.33;;
19004;SDS011;9635;52.078;8.648;2024-01-11T08:59:32;52.00;;;24.40;;
19004;SDS011;9635;52.078;8.648;2024-01-11T09:04:35;52.17;;;23.60;;
19004;SDS011;9635;52.078;8.648;2024-01-11T09:09:39;50.08;;;22.65;;
19004;SDS011;9635;52.078;8.648;2024-01-11T09:14:55;48.17;;;22.17;;
19004;SDS011;9635;52.078;8.648;2024-01-11T09:19:58;51.40;;;23.85;;
19004;SDS011;9635;52.078;8.648;2024-01-11T09:25:02;52.45;;;24.05;;
19004;SDS011;9635;52.078;8.648;2024-01-11T09:30:07;50.78;;;24.13;;
19004;SDS011;9635;52.078;8.648;2024-01-11T09:35:11;48.17;;;23.10;;
19004;SDS011;9635;52.078;8.648;2024-01-11T09:40:17;45.67;;;23.20;;
19004;SDS011;9635;52.078;8.648;2024-01-11T09:45:22;54.50;;;24.95;;
19004;SDS011;9635;52.078;8.648;2024-01-11T09:50:24;48.58;;;24.60;;
19004;SDS011;9635;52.078;8.648;2024-01-11T09:55:28;57.15;;;25.65;;
19004;SDS011;9635;52.078;8.648;2024-01-11T10:00:32;48.70;;;23.73;;
19004;SDS011;9635;52.078;8.648;2024-01-11T10:05:35;55.63;;;26.30;;
19004;SDS011;9635;52.078;8.648;2024-01-11T10:10:39;52.50;;;25.10;;
19004;SDS011;9635;52.078;8.648;2024-01-11T10:15:43;57.97;;;25.80;;
19004;SDS011;9635;52.078;8.648;2024-01-11T10:20:47;51.95;;;25.48;;
19004;SDS011;9635;52.078;8.648;2024-01-11T10:25:54;53.15;;;24.15;;
19004;SDS011;9635;52.078;8.648;2024-01-11T10:30:59;45.15;;;22.52;;
19004;SDS011;9635;52.078;8.648;2024-01-11T10:36:03;47.17;;;21.48;;
19004;SDS011;9635;52.078;8.648;2024-01-11T10:41:07;50.47;;;22.77;;
19004;SDS011;9635;52.078;8.648;2024-01-11T10:46:11;48.42;;;23.65;;
19004;SDS011;9635;52.078;8.648;2024-01-11T10:51:16;51.13;;;24.30;;
19004;SDS011;9635;52.078;8.648;2024-01-11T10:56:25;48.90;;;22.90;;
19004;SDS011;9635;52.078;8.648;2024-01-11T11:01:31;44.30;;;21.23;;
19004;SDS011;9635;52.078;8.648;2024-01-11T11:06:34;48.33;;;21.42;;
19004;SDS011;9635;52.078;8.648;2024-01-11T11:11:39;50.80;;;22.08;;
19004;SDS011;9635;52.078;8.648;2024-01-11T11:21:48;53.88;;;22.92;;
19004;SDS011;9635;52.078;8.648;2024-01-11T11:26:52;48.03;;;21.17;;
19004;SDS011;9635;52.078;8.648;2024-01-11T11:32:00;56.15;;;24.27;;
19004;SDS011;9635;52.078;8.648;2024-01-11T11:37:06;57.38;;;24.00;;
19004;SDS011;9635;52.078;8.648;2024-01-11T11:42:10;56.53;;;23.58;;
19004;SDS011;9635;52.078;8.648;2024-01-11T11:47:19;54.92;;;24.35;;
19004;SDS011;9635;52.078;8.648;2024-01-11T11:52:25;56.58;;;24.33;;
19004;SDS011;9635;52.078;8.648;2024-01-11T11:57:28;57.38;;;24.38;;
19004;SDS011;9635;52.078;8.648;2024-01-11T12:02:32;60.00;;;23.85;;
19004;SDS011;9635;52.078;8.648;2024-01-11T12:07:37;59.30;;;23.25;;
19004;SDS011;9635;52.078;8.648;2024-01-11T12:12:41;63.50;;;26.20;;
19004;SDS011;9635;52.078;8.648;2024-01-11T12:17:45;61.70;;;26.52;;
19004;SDS011;9635;52.078;8.648;2024-01-11T12:22:49;61.03;;;25.20;;
19004;SDS011;9635;52.078;8.648;2024-01-11T12:27:52;62.10;;;27.00;;
19004;SDS011;9635;52.078;8.648;2024-01-11T12:32:56;58.63;;;25.92;;
19004;SDS011;9635;52.078;8.648;2024-01-11T12:38:00;67.45;;;26.85;;
19004;SDS011;9635;52.078;8.648;2024-01-11T12:43:08;66.65;;;24.85;;
19004;SDS011;9635;52.078;8.648;2024-01-11T12:48:15;67.70;;;26.10;;
19004;SDS011;9635;52.078;8.648;2024-01-11T12:53:20;67.43;;;26.17;;
19004;SDS011;9635;52.078;8.648;2024-01-11T12:58:23;68.60;;;28.88;;
19004;SDS011;9635;52.078;8.648;2024-01-11T13:03:29;68.53;;;27.02;;
19004;SDS011;9635;52.078;8.648;2024-01-11T13:08:33;65.78;;;25.60;;
19004;SDS011;9635;52.078;8.648;2024-01-11T13:13:38;65.47;;;27.13;;
19004;SDS011;9635;52.078;8.648;2024-01-11T13:18:42;61.28;;;25.52;;
19004;SDS011;9635;52.078;8.648;2024-01-11T13:23:45;66.43;;;27.10;;
19004;SDS011;9635;52.078;8.648;2024-01-11T13:28:49;66.85;;;27.38;;
19004;SDS011;9635;52.078;8.648;2024-01-11T13:33:55;60.30;;;26.42;;
19004;SDS011;9635;52.078;8.648;2024-01-11T13:38:59;66.85;;;27.63;;
19004;SDS011;9635;52.078;8.648;2024-01-11T13:44:02;61.22;;;26.30;;
19004;SDS011;9635;52.078;8.648;2024-01-11T13:49:09;67.88;;;26.35;;
19004;SDS011;9635;52.078;8.648;2024-01-11T13:54:13;64.00;;;26.77;;
19004;SDS011;9635;52.078;8.648;2024-01-11T13:59:16;62.55;;;25.20;;
19004;SDS011;9635;52.078;8.648;2024-01-11T14:04:20;63.38;;;24.38;;
19004;SDS011;9635;52.078;8.648;2024-01-11T14:09:25;58.55;;;23.85;;
19004;SDS011;9635;52.078;8.648;2024-01-11T14:14:29;59.95;;;23.10;;
19004;SDS011;9635;52.078;8.648;2024-01-11T14:19:33;62.05;;;23.80;;
19004;SDS011;9635;52.078;8.648;2024-01-11T14:24:37;56.35;;;23.20;;
19004;SDS011;9635;52.078;8.648;2024-01-11T14:29:40;64.38;;;23.13;;
19004;SDS011;9635;52.078;8.648;2024-01-11T14:34:44;63.67;;;22.05;;
19004;SDS011;9635;52.078;8.648;2024-01-11T14:39:47;62.88;;;23.58;;
19004;SDS011;9635;52.078;8.648;2024-01-11T14:44:50;61.63;;;24.17;;
19004;SDS011;9635;52.078;8.648;2024-01-11T14:49:55;56.38;;;22.38;;
19004;SDS011;9635;52.078;8.648;2024-01-11T14:54:58;48.10;;;21.73;;
19004;SDS011;9635;52.078;8.648;2024-01-11T15:00:01;59.50;;;20.33;;
19004;SDS011;9635;52.078;8.648;2024-01-11T15:05:10;50.05;;;19.88;;
19004;SDS011;9635;52.078;8.648;2024-01-11T15:10:13;49.22;;;20.17;;
19004;SDS011;9635;52.078;8.648;2024-01-11T15:15:16;51.55;;;19.80;;
19004;SDS011;9635;52.078;8.648;2024-01-11T15:20:21;49.60;;;20.20;;
19004;SDS011;9635;52.078;8.648;2024-01-11T15:25:24;53.78;;;20.02;;
19004;SDS011;9635;52.078;8.648;2024-01-11T15:30:28;56.72;;;21.83;;
19004;SDS011;9635;52.078;8.648;2024-01-11T15:35:32;48.45;;;19.90;;
19004;SDS011;9635;52.078;8.648;2024-01-11T15:40:35;50.00;;;20.27;;
19004;SDS011;9635;52.078;8.648;2024-01-11T15:45:38;47.33;;;19.00;;
19004;SDS011;9635;52.078;8.648;2024-01-11T15:50:43;49.08;;;20.88;;
19004;SDS011;9635;52.078;8.648;2024-01-11T15:55:46;51.80;;;20.17;;
19004;SDS011;9635;52.078;8.648;2024-01-11T16:00:49;59.95;;;23.83;;
19004;SDS011;9635;52.078;8.648;2024-01-11T16:05:54;72.72;;;27.27;;
19004;SDS011;9635;52.078;8.648;2024-01-11T16:10:57;64.97;;;27.50;;
19004;SDS011;9635;52.078;8.648;2024-01-11T16:16:00;75.80;;;34.60;;
19004;SDS011;9635;52.078;8.648;2024-01-11T16:21:05;54.53;;;22.92;;
19004;SDS011;9635;52.078;8.648;2024-01-11T16:26:08;63.60;;;22.60;;
19004;SDS011;9635;52.078;8.648;2024-01-11T16:31:11;56.75;;;25.98;;
19004;SDS011;9635;52.078;8.648;2024-01-11T16:36:19;45.53;;;20.98;;
19004;SDS011;9635;52.078;8.648;2024-01-11T16:41:22;46.22;;;19.13;;
19004;SDS011;9635;52.078;8.648;2024-01-11T16:46:26;38.35;;;17.55;;
19004;SDS011;9635;52.078;8.648;2024-01-11T16:51:31;43.67;;;17.50;;
19004;SDS011;9635;52.078;8.648;2024-01-11T16:56:34;41.65;;;18.88;;
19004;SDS011;9635;52.078;8.648;2024-01-11T17:01:37;47.33;;;19.90;;
19004;SDS011;9635;52.078;8.648;2024-01-11T17:06:42;53.20;;;20.90;;
19004;SDS011;9635;52.078;8.648;2024-01-11T17:11:45;40.83;;;19.42;;
19004;SDS011;9635;52.078;8.648;2024-01-11T17:16:48;45.53;;;19.98;;
19004;SDS011;9635;52.078;8.648;2024-01-11T17:21:54;46.80;;;20.08;;
19004;SDS011;9635;52.078;8.648;2024-01-11T17:26:57;45.28;;;19.58;;
19004;SDS011;9635;52.078;8.648;2024-01-11T17:32:05;42.67;;;20.90;;
19004;SDS011;9635;52.078;8.648;2024-01-11T17:37:10;50.42;;;21.75;;
19004;SDS011;9635;52.078;8.648;2024-01-11T17:42:13;48.42;;;21.50;;
19004;SDS011;9635;52.078;8.648;2024-01-11T17:47:16;46.95;;;20.90;;
19004;SDS011;9635;52.078;8.648;2024-01-11T17:52:21;52.00;;;21.85;;
19004;SDS011;9635;52.078;8.648;2024-01-11T17:57:24;53.38;;;22.33;;
19004;SDS011;9635;52.078;8.648;2024-01-11T18:02:29;62.28;;;23.15;;
19004;SDS011;9635;52.078;8.648;2024-01-11T18:07:33;59.55;;;25.60;;
19004;SDS011;9635;52.078;8.648;2024-01-11T18:12:36;63.72;;;25.77;;
19004;SDS011;9635;52.078;8.648;2024-01-11T18:17:39;59.38;;;25.33;;
19004;SDS011;9635;52.078;8.648;2024-01-11T18:22:44;61.90;;;25.90;;
19004;SDS011;9635;52.078;8.648;2024-01-11T18:27:48;58.35;;;25.65;;
19004;SDS011;9635;52.078;8.648;2024-01-11T18:32:51;61.15;;;25.63;;
19004;SDS011;9635;52.078;8.648;2024-01-11T18:37:56;56.90;;;25.90;;
19004;SDS011;9635;52.078;8.648;2024-01-11T18:42:59;57.95;;;25.60;;
19004;SDS011;9635;52.078;8.648;2024-01-11T18:48:02;59.03;;;25.98;;
19004;SDS011;9635;52.078;8.648;2024-01-11T18:53:11;56.88;;;25.35;;
19004;SDS011;9635;52.078;8.648;2024-01-11T18:58:14;57.92;;;24.10;;
19004;SDS011;9635;52.078;8.648;2024-01-11T19:03:18;59.85;;;27.15;;
19004;SDS011;9635;52.078;8.648;2024-01-11T19:08:24;56.45;;;22.55;;
19004;SDS011;9635;52.078;8.648;2024-01-11T19:13:29;58.83;;;24.55;;
19004;SDS011;9635;52.078;8.648;2024-01-11T19:18:32;55.25;;;25.23;;
19004;SDS011;9635;52.078;8.648;2024-01-11T19:23:37;57.33;;;24.13;;
19004;SDS011;9635;52.078;8.648;2024-01-11T19:28:41;56.65;;;23.70;;
19004;SDS011;9635;52.078;8.648;2024-01-11T19:33:44;51.78;;;23.85;;
19004;SDS011;9635;52.078;8.648;2024-01-11T19:38:49;49.85;;;22.70;;
19004;SDS011;9635;52.078;8.648;2024-01-11T19:43:52;49.92;;;22.10;;
19004;SDS011;9635;52.078;8.648;2024-01-11T19:48:56;55.63;;;24.13;;
19004;SDS011;9635;52.078;8.648;2024-01-11T19:54:01;57.40;;;25.70;;
19004;SDS011;9635;52.078;8.648;2024-01-11T19:59:03;55.72;;;24.92;;
19004;SDS011;9635;52.078;8.648;2024-01-11T20:04:07;56.78;;;24.90;;
19004;SDS011;9635;52.078;8.648;2024-01-11T20:09:11;53.00;;;23.58;;
19004;SDS011;9635;52.078;8.648;2024-01-11T20:14:16;61.55;;;27.75;;
19004;SDS011;9635;52.078;8.648;2024-01-11T20:19:20;55.88;;;25.60;;
19004;SDS011;9635;52.078;8.648;2024-01-11T20:24:24;53.85;;;24.85;;
19004;SDS011;9635;52.078;8.648;2024-01-11T20:29:27;60.20;;;27.20;;
19004;SDS011;9635;52.078;8.648;2024-01-11T20:34:31;55.30;;;23.45;;
19004;SDS011;9635;52.078;8.648;2024-01-11T20:39:36;50.97;;;23.77;;
19004;SDS011;9635;52.078;8.648;2024-01-11T20:44:42;54.47;;;24.90;;
19004;SDS011;9635;52.078;8.648;2024-01-11T20:49:45;58.60;;;24.88;;
19004;SDS011;9635;52.078;8.648;2024-01-11T20:54:49;55.38;;;24.45;;
19004;SDS011;9635;52.078;8.648;2024-01-11T20:59:54;61.67;;;27.35;;
19004;SDS011;9635;52.078;8.648;2024-01-11T21:04:57;53.38;;;24.75;;
19004;SDS011;9635;52.078;8.648;2024-01-11T21:10:02;60.03;;;25.65;;
19004;SDS011;9635;52.078;8.648;2024-01-11T21:15:05;60.15;;;24.67;;
19004;SDS011;9635;52.078;8.648;2024-01-11T21:20:09;57.17;;;25.90;;
19004;SDS011;9635;52.078;8.648;2024-01-11T21:25:14;61.88;;;27.38;;
19004;SDS011;9635;52.078;8.648;2024-01-11T21:30:17;57.63;;;25.92;;
19004;SDS011;9635;52.078;8.648;2024-01-11T21:35:20;60.58;;;27.73;;
19004;SDS011;9635;52.078;8.648;2024-01-11T21:40:25;63.10;;;25.90;;
19004;SDS011;9635;52.078;8.648;2024-01-11T21:45:28;56.25;;;26.30;;
19004;SDS011;9635;52.078;8.648;2024-01-11T21:50:31;55.22;;;25.38;;
19004;SDS011;9635;52.078;8.648;2024-01-11T21:55:36;58.72;;;26.17;;
19004;SDS011;9635;52.078;8.648;2024-01-11T22:00:40;55.88;;;24.83;;
19004;SDS011;9635;52.078;8.648;2024-01-11T22:05:43;60.58;;;26.13;;
19004;SDS011;9635;52.078;8.648;2024-01-11T22:10:48;59.20;;;24.73;;
19004;SDS011;9635;52.078;8.648;2024-01-11T22:15:52;63.45;;;25.83;;
19004;SDS011;9635;52.078;8.648;2024-01-11T22:20:55;62.63;;;26.27;;
19004;SDS011;9635;52.078;8.648;2024-01-11T22:26:00;61.20;;;25.27;;
19004;SDS011;9635;52.078;8.648;2024-01-11T22:31:03;60.13;;;25.48;;
19004;SDS011;9635;52.078;8.648;2024-01-11T22:36:07;67.00;;;27.10;;
19004;SDS011;9635;52.078;8.648;2024-01-11T22:41:12;65.85;;;25.10;;
19004;SDS011;9635;52.078;8.648;2024-01-11T22:46:16;67.55;;;26.90;;
19004;SDS011;9635;52.078;8.648;2024-01-11T22:51:19;67.03;;;24.75;;
19004;SDS011;9635;52.078;8.648;2024-01-11T22:56:23;65.45;;;25.50;;
19004;SDS011;9635;52.078;8.648;2024-01-11T23:01:27;69.40;;;27.20;;
19004;SDS011;9635;52.078;8.648;2024-01-11T23:06:30;63.80;;;26.05;;
19004;SDS011;9635;52.078;8.648;2024-01-11T23:11:38;62.75;;;26.48;;
19004;SDS011;9635;52.078;8.648;2024-01-11T23:16:41;79.07;;;26.92;;
19004;SDS011;9635;52.078;8.648;2024-01-11T23:21:44;69.93;;;25.13;;
19004;SDS011;9635;52.078;8.648;2024-01-11T23:26:48;64.53;;;25.40;;
19004;SDS011;9635;52.078;8.648;2024-01-11T23:31:52;65.85;;;26.13;;
19004;SDS011;9635;52.078;8.648;2024-01-11T23:36:55;72.63;;;26.75;;
19004;SDS011;9635;52.078;8.648;2024-01-11T23:41:59;67.25;;;27.02;;
19004;SDS011;9635;52.078;8.648;2024-01-11T23:47:02;68.30;;;26.65;;
19004;SDS011;9635;52.078;8.648;2024-01-11T23:52:05;69.95;;;28.02;;
19004;SDS011;9635;52.078;8.648;2024-01-11T23:57:10;73.93;;;27.95;;
